Time;durP1;ratioP1;P1;durP2;ratioP2;P2;SDS_P1;SDS_P2;PMS_P1;PMS_P2;Temp;Humidity;BMP_temperature;BMP_pressure;BME280_temperature;BME280_humidity;BME280_pressure;Samples;Min_cycle;Max_cycle;Signal;HPM_P1;HPM_P2
2024/01/02 00:01:13;;;;;;;2.70;2.50;;;;;;;4.89;nan;-22372.63;4991727;28;20187;-63
2024/01/02 00:03:39;;;;;;;5.93;4.10;;;;;;;5.09;nan;-22377.53;4991569;28;20554;-68
2024/01/02 00:06:04;;;;;;;2.67;2.47;;;;;;;4.74;nan;-22368.72;4991534;28;20226;-65
2024/01/02 00:08:29;;;;;;;2.93;2.73;;;;;;;4.81;nan;-22370.41;4991598;28;20269;-66
2024/01/02 00:10:55;;;;;;;2.77;2.53;;;;;;;4.87;nan;-22371.97;4991629;28;20181;-66
2024/01/02 00:13:20;;;;;;;3.30;3.00;;;;;;;4.74;nan;-22368.59;4991497;28;20173;-64
2024/01/02 00:15:46;;;;;;;3.70;3.40;;;;;;;4.57;nan;-22680.00;4991615;28;20184;-66
2024/01/02 00:18:11;;;;;;;2.30;2.13;;;;;;;4.48;nan;-22677.63;4991622;28;20291;-63
2024/01/02 00:20:36;;;;;;;2.60;2.40;;;;;;;4.47;nan;-22677.34;4991604;28;20181;-63
2024/01/02 00:23:02;;;;;;;2.30;2.20;;;;;;;4.60;nan;-22680.78;5006226;28;20176;-68
2024/01/02 00:25:27;;;;;;;3.30;3.00;;;;;;;4.56;nan;-22995.34;4991334;28;20696;-61
2024/01/02 00:27:53;;;;;;;8.60;2.67;;;;;;;4.52;nan;-22994.16;4991446;28;20315;-64
2024/01/02 00:30:18;;;;;;;5.43;2.40;;;;;;;4.46;nan;-22992.66;4991377;28;20196;-66
2024/01/02 00:32:43;;;;;;;3.73;3.33;;;;;;;4.50;nan;-22993.75;4991839;28;20252;-69
2024/01/02 00:35:09;;;;;;;3.07;2.20;;;;;;;4.49;nan;-23308.88;4991475;28;20542;-67
2024/01/02 00:37:35;;;;;;;3.23;3.03;;;;;;;4.24;nan;-23302.31;4990859;28;20694;-63
2024/01/02 00:40:00;;;;;;;2.40;2.20;;;;;;;4.45;nan;-23623.56;4993400;28;20180;-65
2024/01/02 00:42:25;;;;;;;4.17;3.50;;;;;;;4.38;nan;-23621.63;4994891;28;20208;-64
2024/01/02 00:44:51;;;;;;;2.67;2.43;;;;;;;4.42;nan;-23938.19;4994802;28;20176;-62
2024/01/02 00:47:20;;;;;;;4.33;3.70;;;;;;;4.18;nan;-23931.22;4994566;28;20180;-67
2024/01/02 00:49:46;;;;;;;2.87;2.57;;;;;;;4.13;nan;-23929.78;4994745;28;20655;-63
2024/01/02 00:52:11;;;;;;;2.77;2.57;;;;;;;4.33;nan;-23935.63;4994515;28;20169;-65
2024/01/02 00:54:37;;;;;;;2.80;2.60;;;;;;;4.07;nan;-23928.09;4994683;28;20253;-65
2024/01/02 00:57:02;;;;;;;3.13;2.80;;;;;;;4.04;nan;-23927.22;4994272;28;20201;-66
2024/01/02 00:59:28;;;;;;;6.07;2.83;;;;;;;4.09;nan;-23928.66;4994371;28;20248;-65
2024/01/02 01:01:53;;;;;;;6.83;3.63;;;;;;;4.08;nan;-23930.22;4993262;28;20272;-66
2024/01/02 01:04:19;;;;;;;2.57;2.37;;;;;;;4.33;nan;-23937.34;4994481;28;20641;-67
2024/01/02 01:06:44;;;;;;;3.70;2.83;;;;;;;4.31;nan;-23936.78;4993981;28;20176;-65
2024/01/02 01:09:09;;;;;;;2.90;2.73;;;;;;;4.22;nan;-23934.34;4994352;28;20264;-67
2024/01/02 01:11:35;;;;;;;3.37;3.07;;;;;;;4.22;nan;-23934.34;4994543;28;20173;-65
2024/01/02 01:14:00;;;;;;;2.07;1.93;;;;;;;4.18;nan;-23933.22;4994222;28;20177;-66
2024/01/02 01:16:25;;;;;;;3.10;2.80;;;;;;;4.15;nan;-23932.34;4994173;28;20177;-62
2024/01/02 01:18:51;;;;;;;2.43;2.23;;;;;;;4.12;nan;-23931.34;4994460;28;20181;-63
2024/01/02 01:21:17;;;;;;;3.67;2.77;;;;;;;3.96;nan;-23926.94;4994366;28;20235;-67
2024/01/02 01:23:42;;;;;;;3.73;2.93;;;;;;;3.87;nan;-23924.53;4994125;28;20227;-65
2024/01/02 01:26:07;;;;;;;5.00;2.70;;;;;;;4.19;nan;-23933.50;4992825;28;20192;-64
2024/01/02 01:28:33;;;;;;;3.10;2.77;;;;;;;4.00;nan;-23928.09;4987484;28;20189;-64
2024/01/02 01:30:58;;;;;;;7.00;3.27;;;;;;;4.26;nan;-23935.34;4993642;28;20232;-65
2024/01/02 01:33:23;;;;;;;6.50;2.17;;;;;;;4.01;nan;-23928.38;4993876;28;20526;-68
2024/01/02 01:35:49;;;;;;;2.70;2.20;;;;;;;4.07;nan;-23930.06;4993743;28;20185;-63
2024/01/02 01:38:14;;;;;;;3.13;2.57;;;;;;;4.02;nan;-23928.66;4993805;28;20262;-66
2024/01/02 01:40:40;;;;;;;4.40;2.53;;;;;;;4.36;nan;-23938.34;4993767;28;20657;-64
2024/01/02 01:43:12;;;;;;;2.90;2.60;;;;;;;4.09;nan;-23930.66;4993885;28;20180;-66
2024/01/02 01:45:38;;;;;;;2.37;2.23;;;;;;;4.10;nan;-23930.94;4993631;28;20211;-66
2024/01/02 01:48:06;;;;;;;2.50;2.30;;;;;;;4.34;nan;-23937.78;4993416;28;20208;-66
2024/01/02 01:50:32;;;;;;;1.80;1.70;;;;;;;4.33;nan;-23937.47;4992381;28;20565;-63
2024/01/02 01:52:59;;;;;;;2.43;2.23;;;;;;;4.43;nan;-23940.19;4993505;28;20243;-65
2024/01/02 01:55:24;;;;;;;4.00;2.90;;;;;;;4.38;nan;-23938.91;4993279;28;20231;-67
2024/01/02 01:57:51;;;;;;;3.77;3.47;;;;;;;4.09;nan;-23930.66;4993545;28;20216;-64
2024/01/02 02:00:19;;;;;;;4.13;3.53;;;;;;;4.28;nan;-23936.06;4993484;28;20180;-64
2024/01/02 02:02:45;;;;;;;2.47;2.37;;;;;;;4.28;nan;-23936.06;4993303;28;20272;-68
2024/01/02 02:05:11;;;;;;;3.83;3.33;;;;;;;4.19;nan;-23933.34;4992886;28;20208;-62
2024/01/02 02:07:40;;;;;;;5.97;3.50;;;;;;;4.13;nan;-23931.66;4993506;28;20177;-64
2024/01/02 02:10:09;;;;;;;3.97;2.97;;;;;;;3.85;nan;-23923.94;4993514;28;20201;-65
2024/01/02 02:12:35;;;;;;;4.37;3.93;;;;;;;4.14;nan;-23932.06;4992946;28;20181;-65
2024/01/02 02:15:02;;;;;;;7.40;3.57;;;;;;;4.15;nan;-23932.22;4992931;28;20656;-66
2024/01/02 02:17:29;;;;;;;3.27;2.50;;;;;;;3.93;nan;-23926.09;4992888;28;20374;-67
2024/01/02 02:19:56;;;;;;;2.03;1.87;;;;;;;4.13;nan;-23931.78;4992992;28;20184;-64
2024/01/02 02:22:32;;;;;;;3.83;3.37;;;;;;;3.91;nan;-23925.53;4993396;28;20183;-65
2024/01/02 02:24:58;;;;;;;3.70;3.40;;;;;;;4.25;nan;-23935.22;4993062;28;20184;-63
2024/01/02 02:27:26;;;;;;;2.97;2.77;;;;;;;4.34;nan;-23937.78;4992619;28;20184;-66
2024/01/02 02:29:52;;;;;;;2.83;2.63;;;;;;;4.45;nan;-23940.91;4992773;28;20177;-63
2024/01/02 02:32:18;;;;;;;4.50;3.73;;;;;;;4.33;nan;-23937.47;4992495;28;20577;-64
2024/01/02 02:34:43;;;;;;;3.43;2.60;;;;;;;4.35;nan;-23938.06;4993635;28;20203;-67
2024/01/02 02:37:08;;;;;;;3.47;3.13;;;;;;;4.64;nan;-23946.03;4992819;28;20189;-63
2024/01/02 02:39:34;;;;;;;5.70;3.97;;;;;;;4.42;nan;-23940.03;4992922;28;20231;-66
2024/01/02 02:41:59;;;;;;;3.07;2.77;;;;;;;4.51;nan;-23942.31;4992723;28;20571;-62
2024/01/02 02:44:25;;;;;;;3.10;2.77;;;;;;;4.65;nan;-23946.44;4992584;28;20176;-65
2024/01/02 02:46:50;;;;;;;4.33;2.57;;;;;;;4.77;nan;-23949.72;4992119;28;20192;-64
2024/01/02 02:49:15;;;;;;;2.73;2.57;;;;;;;4.43;nan;-23940.34;4992601;28;20204;-65
2024/01/02 02:51:41;;;;;;;6.73;3.53;;;;;;;4.34;nan;-23937.78;4992440;28;20219;-64
2024/01/02 02:54:06;;;;;;;6.23;3.90;;;;;;;4.49;nan;-23941.75;4992627;28;20203;-65
2024/01/02 02:56:32;;;;;;;3.83;3.47;;;;;;;4.23;nan;-23934.63;4992381;28;20211;-63
2024/01/02 02:58:57;;;;;;;3.63;3.30;;;;;;;4.30;nan;-23936.63;4992493;28;20196;-67
2024/01/02 03:01:23;;;;;;;2.13;2.00;;;;;;;4.26;nan;-23935.50;4992024;28;20250;-61
2024/01/02 03:03:48;;;;;;;3.90;3.13;;;;;;;4.20;nan;-23933.78;4992119;28;20644;-61
2024/01/02 03:06:14;;;;;;;2.60;2.40;;;;;;;4.50;nan;-23942.03;4992241;28;20586;-67
2024/01/02 03:08:39;;;;;;;2.63;2.43;;;;;;;4.46;nan;-23941.03;4992511;28;20176;-66
2024/01/02 03:11:05;;;;;;;4.37;3.47;;;;;;;4.36;nan;-23938.19;4992082;28;20271;-66
2024/01/02 03:13:30;;;;;;;3.83;3.03;;;;;;;4.30;nan;-23934.63;4992158;28;20184;-63
2024/01/02 03:15:56;;;;;;;2.97;2.57;;;;;;;4.04;nan;-23929.09;4991899;28;20264;-63
2024/01/02 03:18:21;;;;;;;3.17;2.97;;;;;;;4.07;nan;-23929.94;4992020;28;20204;-66
2024/01/02 03:20:47;;;;;;;5.13;3.27;;;;;;;4.18;nan;-23933.22;4991825;28;20176;-64
2024/01/02 03:23:12;;;;;;;4.83;3.83;;;;;;;4.31;nan;-23936.78;4992184;28;20488;-61
2024/01/02 03:25:38;;;;;;;2.17;2.07;;;;;;;4.19;nan;-23933.50;4991980;28;20340;-65
2024/01/02 03:28:03;;;;;;;5.93;3.70;;;;;;;4.27;nan;-23935.63;5006923;28;20192;-68
2024/01/02 03:30:29;;;;;;;2.70;2.50;;;;;;;4.27;nan;-23935.78;4991838;28;20183;-66
2024/01/02 03:32:54;;;;;;;2.47;2.27;;;;;;;4.34;nan;-23937.63;4991550;28;20224;-67
2024/01/02 03:35:20;;;;;;;3.60;3.27;;;;;;;4.31;nan;-23936.91;4991813;28;20239;-65
2024/01/02 03:37:46;;;;;;;3.73;3.33;;;;;;;4.24;nan;-23934.91;4991579;28;20282;-63
2024/01/02 03:40:12;;;;;;;2.50;2.30;;;;;;;4.41;nan;-23939.75;4992032;28;20175;-62
2024/01/02 03:42:37;;;;;;;2.63;2.43;;;;;;;4.30;nan;-23936.63;4992356;28;20201;-63
2024/01/02 03:45:03;;;;;;;2.60;2.37;;;;;;;4.59;nan;-23944.75;4991596;28;20187;-66
2024/01/02 03:47:28;;;;;;;3.10;2.83;;;;;;;4.43;nan;-23940.19;4992001;28;20173;-64
2024/01/02 03:49:54;;;;;;;3.23;3.03;;;;;;;4.45;nan;-23940.91;4665546;28;21093;-66
2024/01/02 03:52:19;;;;;;;2.23;2.07;;;;;;;4.62;nan;-23945.47;4360976;28;21566;-65
2024/01/02 03:54:45;;;;;;;2.10;1.90;;;;;;;4.62;nan;-23945.47;4804061;28;20188;-67
2024/01/02 03:57:10;;;;;;;3.17;2.97;;;;;;;4.45;nan;-23940.91;4990482;28;20532;-65
2024/01/02 03:59:36;;;;;;;6.80;3.67;;;;;;;4.39;nan;-23939.06;4991603;28;20173;-65
2024/01/02 04:02:01;;;;;;;7.50;2.90;;;;;;;4.61;nan;-23945.31;4991826;28;20532;-65
2024/01/02 04:04:27;;;;;;;3.90;3.33;;;;;;;4.45;nan;-23940.91;4991397;28;20569;-63
2024/01/02 04:06:52;;;;;;;2.23;2.10;;;;;;;4.66;nan;-23946.75;4991889;28;20211;-65
2024/01/02 04:09:17;;;;;;;4.97;3.47;;;;;;;4.83;nan;-23951.44;4991928;28;20177;-64
2024/01/02 04:11:43;;;;;;;2.67;2.47;;;;;;;4.88;nan;-23952.84;4991588;28;20179;-65
2024/01/02 04:14:08;;;;;;;3.83;3.27;;;;;;;4.92;nan;-23953.84;4992092;28;20192;-65
2024/01/02 04:16:34;;;;;;;2.47;2.30;;;;;;;4.76;nan;-23949.59;4994995;28;20249;-62
2024/01/02 04:18:59;;;;;;;3.50;2.70;;;;;;;4.64;nan;-23946.03;4995660;28;20176;-63
2024/01/02 04:21:24;;;;;;;2.40;2.20;;;;;;;5.04;nan;-23957.25;4995557;28;20259;-63
2024/01/02 04:23:50;;;;;;;3.57;3.10;;;;;;;5.05;nan;-23955.69;4994959;28;20184;-63
2024/01/02 04:26:15;;;;;;;2.47;2.27;;;;;;;5.09;nan;-23956.97;4995381;28;20176;-63
2024/01/02 04:28:41;;;;;;;2.77;2.57;;;;;;;5.03;nan;-23955.13;4994991;28;20216;-62
2024/01/02 04:31:08;;;;;;;2.03;1.83;;;;;;;5.14;nan;-23958.41;4994485;28;20232;-63
2024/01/02 04:33:33;;;;;;;3.80;2.97;;;;;;;5.17;nan;-23959.25;4995447;28;20215;-65
2024/01/02 04:35:59;;;;;;;2.67;2.47;;;;;;;5.21;nan;-23960.41;4994789;28;20201;-65
2024/01/02 04:38:24;;;;;;;3.53;2.83;;;;;;;5.17;nan;-23959.13;4994843;28;20282;-64
2024/01/02 04:40:49;;;;;;;3.07;2.77;;;;;;;5.24;nan;-23645.38;4994763;28;20184;-67
2024/01/02 04:43:15;;;;;;;3.20;2.80;;;;;;;5.19;nan;-23328.09;4995159;28;20183;-63
2024/01/02 04:45:40;;;;;;;2.37;2.23;;;;;;;4.88;nan;-23635.44;4994955;28;20726;-65
2024/01/02 04:48:06;;;;;;;2.90;2.33;;;;;;;4.97;nan;-23322.06;4994839;28;20192;-65
2024/01/02 04:50:31;;;;;;;3.10;2.87;;;;;;;4.93;nan;-23320.97;4994626;28;20204;-64
2024/01/02 04:52:57;;;;;;;2.53;2.33;;;;;;;4.86;nan;-23319.16;4994713;28;20169;-65
2024/01/02 04:55:22;;;;;;;7.00;3.73;;;;;;;4.86;nan;-23319.03;4994411;28;20169;-65
2024/01/02 04:57:47;;;;;;;3.33;3.03;;;;;;;5.19;nan;-23327.94;4994463;28;20282;-62
2024/01/02 05:00:13;;;;;;;2.87;2.53;;;;;;;4.97;nan;-23322.06;4994134;28;20565;-62
2024/01/02 05:02:38;;;;;;;3.00;2.47;;;;;;;4.98;nan;-23322.31;4994504;28;20267;-63
2024/01/02 05:05:04;;;;;;;3.23;3.00;;;;;;;5.25;nan;-23329.72;4994696;28;20211;-66
2024/01/02 05:07:30;;;;;;;3.53;3.23;;;;;;;5.26;nan;-23329.88;4993314;28;20180;-65
2024/01/02 05:09:57;;;;;;;2.17;2.00;;;;;;;5.06;nan;-23324.53;4994365;28;20706;-64
2024/01/02 05:12:22;;;;;;;3.37;2.93;;;;;;;5.11;nan;-23325.75;4994300;28;20168;-66
2024/01/02 05:14:48;;;;;;;2.87;2.57;;;;;;;4.68;nan;-23314.09;4994242;28;20624;-64
2024/01/02 05:17:13;;;;;;;2.47;2.33;;;;;;;5.35;nan;-23332.31;4994221;28;20193;-64
2024/01/02 05:19:39;;;;;;;2.27;2.07;;;;;;;5.03;nan;-23323.69;4994276;28;20173;-65
2024/01/02 05:22:04;;;;;;;4.23;3.57;;;;;;;5.29;nan;-23330.69;4994209;28;20180;-67
2024/01/02 05:24:30;;;;;;;2.80;2.30;;;;;;;5.03;nan;-23323.69;4994012;28;20547;-62
2024/01/02 05:26:56;;;;;;;3.13;2.77;;;;;;;5.08;nan;-23324.94;4994271;28;20268;-67
2024/01/02 05:29:21;;;;;;;4.80;3.07;;;;;;;4.99;nan;-23322.59;4993551;28;20176;-67
2024/01/02 05:31:47;;;;;;;3.20;3.00;;;;;;;5.19;nan;-23327.94;4994121;28;20356;-64
2024/01/02 05:34:12;;;;;;;4.33;2.93;;;;;;;5.25;nan;-23329.72;4993877;28;20551;-62
2024/01/02 05:36:37;;;;;;;3.40;2.60;;;;;;;5.23;nan;-23329.03;4993549;28;20243;-65
2024/01/02 05:39:03;;;;;;;2.53;2.23;;;;;;;4.99;nan;-23322.47;4993907;28;20619;-67
2024/01/02 05:41:28;;;;;;;2.77;2.57;;;;;;;4.87;nan;-23003.56;4993276;28;20185;-66
2024/01/02 05:43:53;;;;;;;2.43;2.23;;;;;;;5.29;nan;-23014.84;4993389;28;20598;-65
2024/01/02 05:46:19;;;;;;;2.67;2.43;;;;;;;5.39;nan;-23017.41;4993508;28;20187;-68
2024/01/02 05:48:44;;;;;;;3.30;3.07;;;;;;;5.03;nan;-22692.00;4986972;28;20690;-66
2024/01/02 05:51:10;;;;;;;6.70;3.70;;;;;;;5.22;nan;-23012.97;4993589;28;20212;-65
2024/01/02 05:53:35;;;;;;;3.40;3.10;;;;;;;5.16;nan;-23011.22;4993508;28;20220;-65
2024/01/02 05:56:01;;;;;;;8.33;2.80;;;;;;;5.04;nan;-23008.13;4993607;28;20367;-64
2024/01/02 05:58:26;;;;;;;3.23;3.03;;;;;;;5.18;nan;-23011.91;4993117;28;20193;-63
2024/01/02 06:00:52;;;;;;;2.13;2.00;;;;;;;5.03;nan;-23007.88;4993109;28;20239;-64
2024/01/02 06:03:17;;;;;;;2.80;2.60;;;;;;;4.90;nan;-23004.38;4992956;28;20176;-65
2024/01/02 06:05:43;;;;;;;2.73;2.50;;;;;;;5.18;nan;-23011.91;4991646;28;20191;-62
2024/01/02 06:08:09;;;;;;;3.47;2.90;;;;;;;5.10;nan;-22693.84;4990820;28;20541;-66
2024/01/02 06:10:36;;;;;;;4.73;3.73;;;;;;;4.98;nan;-22690.53;4992279;28;20191;-65
2024/01/02 06:13:02;;;;;;;3.23;3.03;;;;;;;5.13;nan;-22694.63;4985178;28;20176;-65
2024/01/02 06:15:28;;;;;;;2.87;2.27;;;;;;;5.28;nan;-22382.56;4989764;28;20720;-63
2024/01/02 06:17:54;;;;;;;2.47;2.27;;;;;;;5.00;nan;-22059.41;4987546;28;20218;-62
2024/01/02 06:20:20;;;;;;;1.70;1.60;;;;;;;5.25;nan;-22065.63;4988503;28;20567;-65
2024/01/02 06:22:45;;;;;;;2.53;2.33;;;;;;;5.05;nan;-22376.50;4987774;28;20652;-64
2024/01/02 06:25:10;;;;;;;3.33;3.03;;;;;;;5.22;nan;-22381.00;4991375;28;20186;-63
2024/01/02 06:27:36;;;;;;;2.53;2.23;;;;;;;4.89;nan;-22372.63;4986795;28;20188;-66
2024/01/02 06:30:03;;;;;;;2.90;2.70;;;;;;;5.27;nan;-22382.31;4988003;28;20200;-65
2024/01/02 06:32:30;;;;;;;2.50;2.30;;;;;;;5.03;nan;-22375.97;4986013;28;20228;-65
2024/01/02 06:34:56;;;;;;;3.63;2.73;;;;;;;5.29;nan;-22382.69;4986312;28;20192;-65
2024/01/02 06:37:22;;;;;;;3.20;2.90;;;;;;;5.21;nan;-22380.75;4989511;28;20232;-67
2024/01/02 06:39:48;;;;;;;2.77;2.57;;;;;;;5.29;nan;-22382.81;4985794;28;20648;-64
2024/01/02 06:42:13;;;;;;;4.00;2.87;;;;;;;5.33;nan;-22699.78;4985682;28;20196;-63
2024/01/02 06:44:39;;;;;;;4.57;3.77;;;;;;;5.42;nan;-22702.00;4986075;28;20181;-65
2024/01/02 06:47:04;;;;;;;2.73;2.27;;;;;;;4.68;nan;-22682.75;4985530;28;20274;-66
2024/01/02 06:49:29;;;;;;;3.30;3.00;;;;;;;5.23;nan;-22697.13;4987865;28;20177;-65
2024/01/02 06:51:55;;;;;;;4.60;3.30;;;;;;;5.50;nan;-22704.25;4987172;28;20766;-66
2024/01/02 06:54:21;;;;;;;2.60;2.40;;;;;;;5.32;nan;-22699.50;4986483;28;20554;-64
2024/01/02 06:56:46;;;;;;;2.87;2.67;;;;;;;5.43;nan;-22702.28;4989045;28;20246;-64
2024/01/02 06:59:12;;;;;;;2.53;2.33;;;;;;;5.35;nan;-22068.16;4985730;28;20231;-65
2024/01/02 07:01:37;;;;;;;2.20;1.90;;;;;;;5.60;nan;-22390.56;4985376;28;20693;-66
2024/01/02 07:04:03;;;;;;;2.77;2.57;;;;;;;5.56;nan;-22389.66;4985523;28;20188;-62
2024/01/02 07:06:28;;;;;;;2.33;2.20;;;;;;;5.49;nan;-22703.84;4985168;28;20184;-63
2024/01/02 07:08:53;;;;;;;3.43;3.07;;;;;;;5.51;nan;-22704.38;4985261;28;20184;-62
2024/01/02 07:11:19;;;;;;;5.20;4.13;;;;;;;5.14;nan;-22694.75;4984505;28;20233;-61
2024/01/02 07:13:44;;;;;;;2.50;2.30;;;;;;;5.71;nan;-22393.41;4991859;28;20184;-62
2024/01/02 07:16:10;;;;;;;3.00;2.67;;;;;;;5.97;nan;-22716.38;4991558;28;20180;-66
2024/01/02 07:18:36;;;;;;;2.97;2.17;;;;;;;6.08;nan;-22719.41;4991783;28;20266;-64
2024/01/02 07:21:02;;;;;;;3.07;2.87;;;;;;;6.00;nan;-22400.91;4991651;28;20172;-66
2024/01/02 07:23:27;;;;;;;5.60;3.67;;;;;;;5.81;nan;-22396.00;4991962;28;20173;-62
2024/01/02 07:25:53;;;;;;;3.63;3.10;;;;;;;5.68;nan;-22392.75;4991562;28;20204;-65
2024/01/02 07:28:18;;;;;;;4.83;3.97;;;;;;;5.68;nan;-22709.00;4991725;28;20227;-64
2024/01/02 07:30:43;;;;;;;3.60;3.30;;;;;;;5.62;nan;-23023.59;4991188;28;20183;-66
2024/01/02 07:33:09;;;;;;;3.50;3.20;;;;;;;5.73;nan;-23026.53;4992086;28;20180;-67
2024/01/02 07:35:37;;;;;;;4.80;4.37;;;;;;;5.74;nan;-22710.44;4991477;28;20655;-66
2024/01/02 07:38:03;;;;;;;2.97;2.57;;;;;;;5.78;nan;-22395.34;4991309;28;20200;-65
2024/01/02 07:40:28;;;;;;;4.33;3.93;;;;;;;5.95;nan;-22399.63;4989812;28;20208;-65
2024/01/02 07:42:54;;;;;;;3.73;3.40;;;;;;;5.95;nan;-22399.47;4991608;28;20252;-62
2024/01/02 07:45:19;;;;;;;4.57;4.07;;;;;;;6.29;nan;-22408.25;4991925;28;20620;-62
2024/01/02 07:47:45;;;;;;;5.07;3.57;;;;;;;6.53;nan;-22097.75;4991727;28;20175;-63
2024/01/02 07:50:10;;;;;;;4.93;3.93;;;;;;;6.78;nan;-22420.75;4995706;28;20188;-64
2024/01/02 07:52:42;;;;;;;2.83;2.60;;;;;;;6.84;nan;-22105.44;4993662;28;20168;-65
2024/01/02 07:55:10;;;;;;;4.97;4.03;;;;;;;7.14;nan;-21161.56;4993692;28;20234;-64
2024/01/02 07:57:36;;;;;;;4.13;3.70;;;;;;;7.32;nan;-20531.44;4993675;28;20254;-66
2024/01/02 08:00:01;;;;;;;2.83;2.67;;;;;;;7.52;nan;-19901.03;4993529;28;20180;-65
2024/01/02 08:02:27;;;;;;;3.97;3.57;;;;;;;7.73;nan;-18635.03;4993330;28;20558;-63
2024/01/02 08:04:52;;;;;;;3.53;3.23;;;;;;;7.68;nan;-17045.50;5008148;28;20180;-64
2024/01/02 08:07:18;;;;;;;5.47;3.37;;;;;;;7.79;nan;-17047.28;4994505;28;20185;-68
2024/01/02 08:09:43;;;;;;;3.57;3.20;;;;;;;7.93;nan;-17367.56;4995358;28;20180;-69
2024/01/02 08:12:09;;;;;;;8.87;4.63;;;;;;;8.06;nan;-16733.81;4995518;28;20173;-69
2024/01/02 08:14:34;;;;;;;3.80;3.10;;;;;;;7.83;nan;-16094.25;5010962;28;20589;-67
2024/01/02 08:17:00;;;;;;;5.80;4.53;;;;;;;8.13;nan;-15144.16;5010207;28;20238;-66
2024/01/02 08:19:25;;;;;;;5.10;4.63;;;;;;;8.31;nan;-13873.13;5010264;28;20211;-64
2024/01/02 08:21:50;;;;;;;4.67;4.20;;;;;;;8.41;nan;-12281.44;4994985;28;20183;-62
2024/01/02 08:24:16;;;;;;;2.67;2.47;;;;;;;8.22;nan;-13235.28;4994963;28;20177;-64
2024/01/02 08:26:42;;;;;;;4.87;3.60;;;;;;;8.32;nan;-15146.78;4995324;28;20267;-63
2024/01/02 08:29:08;;;;;;;4.67;3.07;;;;;;;8.35;nan;-15783.78;4995039;28;20212;-67
2024/01/02 08:31:34;;;;;;;5.63;3.80;;;;;;;8.52;nan;-15467.84;4994634;28;20216;-64
2024/01/02 08:33:59;;;;;;;3.20;2.93;;;;;;;8.34;nan;-14510.31;4994877;28;20177;-63
2024/01/02 08:36:24;;;;;;;3.38;2.72;;;;;;;8.36;nan;-15147.31;4994764;28;20177;-63
2024/01/02 08:38:50;;;;;;;4.78;4.05;;;;;;;8.43;nan;-15148.34;4994569;28;20334;-64
2024/01/02 08:41:15;;;;;;;3.08;2.88;;;;;;;8.76;nan;-15152.78;4994591;28;20260;-62
2024/01/02 08:43:40;;;;;;;4.45;4.05;;;;;;;8.80;nan;-15153.34;4994794;28;20192;-63
2024/01/02 08:46:06;;;;;;;3.38;3.08;;;;;;;8.86;nan;-15472.75;4994447;28;20640;-63
2024/01/02 08:48:31;;;;;;;3.65;3.38;;;;;;;9.13;nan;-14839.03;4994530;28;20176;-65
2024/01/02 08:50:57;;;;;;;4.43;3.78;;;;;;;8.91;nan;-13880.03;4994706;28;20180;-67
2024/01/02 08:53:22;;;;;;;3.38;3.05;;;;;;;9.30;nan;-12608.41;4994753;28;20633;-64
2024/01/02 08:55:48;;;;;;;2.92;2.67;;;;;;;8.99;nan;-13880.88;4995290;28;20167;-65
2024/01/02 08:58:14;;;;;;;6.35;3.55;;;;;;;9.20;nan;-14202.22;4994527;28;20204;-68
2024/01/02 09:00:39;;;;;;;4.03;3.72;;;;;;;8.99;nan;-14518.41;4993792;28;20177;-64
2024/01/02 09:03:06;;;;;;;4.13;3.20;;;;;;;9.20;nan;-15158.66;4994720;28;20169;-64
2024/01/02 09:05:34;;;;;;;3.30;3.08;;;;;;;9.17;nan;-15158.25;4995136;28;20656;-67
2024/01/02 09:08:00;;;;;;;5.10;4.60;;;;;;;9.15;nan;-15476.78;4993970;28;20234;-63
2024/01/02 09:10:33;;;;;;;3.65;3.35;;;;;;;9.23;nan;-15477.84;4994608;28;20551;-67
2024/01/02 09:13:02;;;;;;;2.83;2.63;;;;;;;8.81;nan;-15471.97;4995401;28;20572;-65
2024/01/02 09:15:27;;;;;;;4.03;3.22;;;;;;;9.28;nan;-15797.41;5008861;28;20185;-64
2024/01/02 09:17:53;;;;;;;3.83;3.53;;;;;;;9.45;nan;-17074.97;4994138;28;20698;-61
2024/01/02 09:20:18;;;;;;;6.88;3.70;;;;;;;9.27;nan;-16434.72;4993861;28;20180;-66
2024/01/02 09:22:44;;;;;;;3.33;3.03;;;;;;;9.34;nan;-16754.34;4994227;28;20586;-65
2024/01/02 09:25:11;;;;;;;3.33;3.03;;;;;;;9.29;nan;-17072.28;4994035;28;20173;-67
2024/01/02 09:27:38;;;;;;;3.33;3.05;;;;;;;9.11;nan;-17387.78;4994309;28;20187;-67
2024/01/02 09:30:04;;;;;;;5.80;3.83;;;;;;;9.25;nan;-17708.84;4985601;28;20212;-63
2024/01/02 09:32:30;;;;;;;2.17;2.08;;;;;;;8.97;nan;-18022.25;4983214;28;20245;-64
2024/01/02 09:34:56;;;;;;;3.65;2.97;;;;;;;9.04;nan;-18978.53;4984708;28;20234;-65
2024/01/02 09:37:21;;;;;;;3.33;3.00;;;;;;;9.01;nan;-18977.94;4979820;28;20224;-67
2024/01/02 09:39:47;;;;;;;2.85;2.53;;;;;;;8.88;nan;-18975.44;4985194;28;20185;-65
2024/01/02 09:42:41;;;;;;;3.65;3.35;;;;;;;8.85;nan;-19293.16;4993668;28;20272;-65
2024/01/02 09:45:44;;;;;;;4.00;3.63;;;;;;;9.20;nan;-19300.13;4987207;28;20241;-64
2024/01/02 09:48:22;;;;;;;2.72;2.30;;;;;;;9.28;nan;-19620.13;5006421;28;20291;-65
2024/01/02 09:50:56;;;;;;;2.42;2.22;;;;;;;9.23;nan;-19937.44;4986046;28;20275;-66
2024/01/02 09:53:51;;;;;;;2.20;1.88;;;;;;;9.18;nan;-20572.88;4987427;28;20188;-63
2024/01/02 09:56:24;;;;;;;2.50;2.30;;;;;;;9.15;nan;-20572.22;4983514;28;20193;-64
2024/01/02 09:59:22;;;;;;;3.15;2.85;;;;;;;9.43;nan;-21215.19;4990359;28;20208;-66
2024/01/02 10:02:19;;;;;;;6.20;2.47;;;;;;;9.40;nan;-21850.97;4983841;28;20205;-65
2024/01/02 10:04:45;;;;;;;3.25;2.40;;;;;;;9.51;nan;-21853.56;4993493;28;20191;-64
2024/01/02 10:07:31;;;;;;;2.33;2.03;;;;;;;9.45;nan;-22170.44;4983473;28;20284;-65
2024/01/02 10:10:15;;;;;;;2.33;2.13;;;;;;;9.52;nan;-22490.31;4983987;28;20185;-65
2024/01/02 10:12:52;;;;;;;3.33;3.03;;;;;;;9.52;nan;-22490.44;4983121;28;20178;-64
2024/01/02 10:15:30;;;;;;;6.07;2.80;;;;;;;9.53;nan;-22490.69;4984150;28;20184;-67
2024/01/02 10:18:14;;;;;;;2.28;2.10;;;;;;;9.72;nan;-22495.56;4989661;28;20208;-63
2024/01/02 10:20:49;;;;;;;3.58;2.90;;;;;;;9.62;nan;-22811.28;4986628;28;20176;-60
2024/01/02 10:23:29;;;;;;;2.97;2.72;;;;;;;9.66;nan;-23130.56;4985321;28;20660;-65
2024/01/02 10:25:59;;;;;;;4.82;2.65;;;;;;;9.92;nan;-23137.25;4986864;28;20271;-64
2024/01/02 10:28:26;;;;;;;2.83;2.42;;;;;;;9.70;nan;-22813.38;4986752;28;20212;-64
2024/01/02 10:31:03;;;;;;;3.70;2.40;;;;;;;9.75;nan;-23132.97;4985722;28;20490;-64
2024/01/02 10:33:40;;;;;;;4.57;2.45;;;;;;;10.23;100.00;-23145.38;5070416;27;20567;-65
2024/01/02 10:36:10;;;;;;;2.08;1.98;;;;;;;10.08;100.00;-22823.03;5054317;28;20254;-63
2024/01/02 10:39:08;;;;;;;2.97;2.45;;;;;;;10.52;100.00;-23153.25;5055065;28;20186;-65
2024/01/02 10:42:09;;;;;;;2.15;1.95;;;;;;;10.68;100.00;-23157.25;5047483;28;20179;-67
2024/01/02 10:44:41;;;;;;;2.08;1.88;;;;;;;10.68;100.00;-23475.97;5046465;28;20672;-65
2024/01/02 10:47:17;;;;;;;2.38;2.20;;;;;;;10.66;100.00;-23475.44;5046856;28;20562;-63
2024/01/02 10:49:59;;;;;;;1.85;1.75;;;;;;;10.91;100.00;-22525.56;5046814;28;20178;-64
2024/01/02 10:52:34;;;;;;;1.42;1.33;;;;;;;10.90;100.00;-22206.34;5045519;28;20239;-66
2024/01/02 10:55:26;;;;;;;2.28;2.08;;;;;;;10.92;100.00;-22206.97;5045211;28;20178;-63
2024/01/02 10:58:15;;;;;;;1.40;1.30;;;;;;;11.22;100.00;-21575.94;5045444;28;20700;-64
2024/01/02 11:01:04;;;;;;;2.33;2.10;;;;;;;11.41;100.00;-21580.59;5052935;28;20299;-63
2024/01/02 11:03:39;;;;;;;1.65;1.55;;;;;;;11.37;100.00;-19982.91;5051427;28;20177;-66
2024/01/02 11:06:17;;;;;;;1.75;1.65;;;;;;;11.67;100.00;-19349.88;5048564;28;20197;-65
2024/01/02 11:08:50;;;;;;;2.55;2.35;;;;;;;11.73;100.00;-19031.50;5053706;28;20702;-63
2024/01/02 11:11:17;;;;;;;1.90;1.80;;;;;;;11.77;100.00;-18072.97;5053232;28;20657;-67
2024/01/02 11:13:46;;;;;;;1.50;1.40;;;;;;;11.51;100.00;-14869.81;5050326;28;20175;-62
2024/01/02 11:16:17;;;;;;;1.77;1.67;;;;;;;11.45;100.00;-17108.09;5027444;28;20184;-63
2024/01/02 11:18:50;;;;;;;1.90;1.80;;;;;;;11.47;100.00;-14869.22;5033221;28;20171;-63
2024/01/02 11:21:28;;;;;;;1.88;1.42;;;;;;;11.38;100.00;-14228.13;5047407;28;20584;-66
2024/01/02 11:23:56;;;;;;;1.52;1.20;;;;;;;11.50;100.00;-13909.47;5047974;28;20167;-63
2024/01/02 11:26:25;;;;;;;1.35;1.30;;;;;;;11.51;100.00;-13909.59;5047619;28;20171;-67
2024/01/02 11:28:52;;;;;;;0.90;0.90;;;;;;;11.36;100.00;-14227.94;5047237;28;20532;-65
2024/01/02 11:31:19;;;;;;;1.08;1.08;;;;;;;11.59;100.00;-13270.09;5045351;28;20183;-66
2024/01/02 11:33:57;;;;;;;1.48;1.38;;;;;;;11.70;100.00;-11669.56;5045408;28;20273;-65
2024/01/02 11:36:33;;;;;;;0.98;0.98;;;;;;;11.82;100.00;-11991.00;5045388;28;20172;-64
2024/01/02 11:39:06;;;;;;;1.13;1.13;;;;;;;11.79;100.00;-12311.16;5045691;28;20205;-64
2024/01/02 11:41:44;;;;;;;1.08;1.08;;;;;;;11.77;100.00;-9105.47;5044083;28;20233;-64
2024/01/02 11:44:16;;;;;;;1.45;1.15;;;;;;;11.74;100.00;-9746.69;5035605;28;20182;-62
2024/01/02 11:46:48;;;;;;;1.42;1.33;;;;;;;11.71;100.00;-9746.56;5028394;28;20197;-64
2024/01/02 11:49:17;;;;;;;0.90;0.90;;;;;;;11.80;100.00;-9105.56;5031741;28;20194;-60